sensor_id;sensor_type;location;lat;lon;timestamp;P1;durP1;ratioP1;P2;durP2;ratioP2
69323;SDS011;56470;47.350;8.718;2023-10-31T05:56:38;2.33;;;1.20;;
69323;SDS011;56470;47.350;8.718;2023-10-31T05:59:04;2.80;;;1.42;;
69323;SDS011;56470;47.350;8.718;2023-10-31T06:01:29;1.63;;;0.93;;
69323;SDS011;56470;47.350;8.718;2023-10-31T06:03:54;2.37;;;1.10;;
69323;SDS011;56470;47.350;8.718;2023-10-31T06:06:20;1.20;;;0.70;;
69323;SDS011;56470;47.350;8.718;2023-10-31T06:08:45;2.20;;;1.10;;
69323;SDS011;56470;47.350;8.718;2023-10-31T06:11:11;2.27;;;1.17;;
69323;SDS011;56470;47.350;8.718;2023-10-31T06:13:40;2.75;;;1.42;;
69323;SDS011;56470;47.350;8.718;2023-10-31T06:16:06;2.30;;;1.10;;
69323;SDS011;56470;47.350;8.718;2023-10-31T06:18:32;2.17;;;1.50;;
69323;SDS011;56470;47.350;8.718;2023-10-31T06:20:57;2.03;;;1.17;;
69323;SDS011;56470;47.350;8.718;2023-10-31T06:23:23;1.60;;;0.90;;
69323;SDS011;56470;47.350;8.718;2023-10-31T06:25:48;4.05;;;0.95;;
69323;SDS011;56470;47.350;8.718;2023-10-31T06:28:14;3.33;;;1.33;;
69323;SDS011;56470;47.350;8.718;2023-10-31T06:30:39;1.67;;;1.00;;
69323;SDS011;56470;47.350;8.718;2023-10-31T06:33:04;2.80;;;0.90;;
69323;SDS011;56470;47.350;8.718;2023-10-31T06:35:32;2.42;;;1.05;;
69323;SDS011;56470;47.350;8.718;2023-10-31T06:37:57;2.57;;;0.80;;
69323;SDS011;56470;47.350;8.718;2023-10-31T06:40:24;4.33;;;1.43;;
69323;SDS011;56470;47.350;8.718;2023-10-31T06:42:50;1.27;;;0.80;;
69323;SDS011;56470;47.350;8.718;2023-10-31T06:45:15;2.93;;;1.33;;
69323;SDS011;56470;47.350;8.718;2023-10-31T06:47:40;3.38;;;0.68;;
69323;SDS011;56470;47.350;8.718;2023-10-31T06:50:07;1.77;;;0.60;;
69323;SDS011;56470;47.350;8.718;2023-10-31T06:52:33;2.22;;;0.73;;
69323;SDS011;56470;47.350;8.718;2023-10-31T06:54:58;3.07;;;0.93;;
69323;SDS011;56470;47.350;8.718;2023-10-31T06:57:24;2.93;;;1.23;;
69323;SDS011;56470;47.350;8.718;2023-10-31T06:59:51;4.57;;;1.98;;
69323;SDS011;56470;47.350;8.718;2023-10-31T07:02:17;3.27;;;0.87;;
69323;SDS011;56470;47.350;8.718;2023-10-31T07:04:42;3.17;;;1.23;;
69323;SDS011;56470;47.350;8.718;2023-10-31T07:07:07;3.87;;;1.37;;
69323;SDS011;56470;47.350;8.718;2023-10-31T07:09:33;1.80;;;0.90;;
69323;SDS011;56470;47.350;8.718;2023-10-31T07:11:58;3.50;;;1.10;;
69323;SDS011;56470;47.350;8.718;2023-10-31T07:14:24;1.97;;;1.10;;
69323;SDS011;56470;47.350;8.718;2023-10-31T07:16:49;2.50;;;1.20;;
69323;SDS011;56470;47.350;8.718;2023-10-31T07:19:14;2.58;;;0.82;;
69323;SDS011;56470;47.350;8.718;2023-10-31T07:21:40;2.43;;;1.00;;
69323;SDS011;56470;47.350;8.718;2023-10-31T07:24:05;2.90;;;1.23;;
69323;SDS011;56470;47.350;8.718;2023-10-31T07:26:33;4.53;;;0.98;;
69323;SDS011;56470;47.350;8.718;2023-10-31T07:28:59;2.97;;;1.00;;
69323;SDS011;56470;47.350;8.718;2023-10-31T07:31:24;1.55;;;0.60;;
69323;SDS011;56470;47.350;8.718;2023-10-31T07:33:50;2.93;;;1.30;;
69323;SDS011;56470;47.350;8.718;2023-10-31T07:36:15;2.37;;;0.97;;
69323;SDS011;56470;47.350;8.718;2023-10-31T07:38:40;3.00;;;1.10;;
69323;SDS011;56470;47.350;8.718;2023-10-31T07:41:06;3.03;;;1.40;;
69323;SDS011;56470;47.350;8.718;2023-10-31T07:43:31;2.03;;;1.20;;
69323;SDS011;56470;47.350;8.718;2023-10-31T07:45:56;1.77;;;0.87;;
69323;SDS011;56470;47.350;8.718;2023-10-31T07:48:22;2.70;;;0.80;;
69323;SDS011;56470;47.350;8.718;2023-10-31T07:50:47;2.07;;;1.20;;
69323;SDS011;56470;47.350;8.718;2023-10-31T07:53:12;2.47;;;1.13;;
69323;SDS011;56470;47.350;8.718;2023-10-31T07:55:38;3.77;;;1.10;;
69323;SDS011;56470;47.350;8.718;2023-10-31T07:58:03;3.90;;;1.40;;
69323;SDS011;56470;47.350;8.718;2023-10-31T08:00:28;3.27;;;0.80;;
69323;SDS011;56470;47.350;8.718;2023-10-31T08:02:54;2.87;;;0.90;;
69323;SDS011;56470;47.350;8.718;2023-10-31T08:05:19;1.67;;;0.93;;
69323;SDS011;56470;47.350;8.718;2023-10-31T08:07:44;3.53;;;0.97;;
69323;SDS011;56470;47.350;8.718;2023-10-31T08:10:10;2.17;;;1.20;;
69323;SDS011;56470;47.350;8.718;2023-10-31T08:12:35;2.73;;;1.13;;
69323;SDS011;56470;47.350;8.718;2023-10-31T08:15:01;2.57;;;1.13;;
69323;SDS011;56470;47.350;8.718;2023-10-31T08:17:26;2.45;;;0.90;;
69323;SDS011;56470;47.350;8.718;2023-10-31T08:19:52;3.23;;;1.10;;
69323;SDS011;56470;47.350;8.718;2023-10-31T08:22:17;4.40;;;1.10;;
69323;SDS011;56470;47.350;8.718;2023-10-31T08:24:42;3.23;;;1.40;;
69323;SDS011;56470;47.350;8.718;2023-10-31T08:27:08;3.03;;;1.23;;
69323;SDS011;56470;47.350;8.718;2023-10-31T08:29:33;2.27;;;1.30;;
69323;SDS011;56470;47.350;8.718;2023-10-31T08:31:59;1.30;;;0.97;;
69323;SDS011;56470;47.350;8.718;2023-10-31T08:34:24;4.30;;;1.07;;
69323;SDS011;56470;47.350;8.718;2023-10-31T08:36:49;3.70;;;1.33;;
69323;SDS011;56470;47.350;8.718;2023-10-31T08:39:15;3.15;;;1.10;;
69323;SDS011;56470;47.350;8.718;2023-10-31T08:44:35;3.13;;;0.90;;
69323;SDS011;56470;47.350;8.718;2023-10-31T08:47:02;3.25;;;1.15;;
69323;SDS011;56470;47.350;8.718;2023-10-31T08:49:31;2.85;;;0.98;;
69323;SDS011;56470;47.350;8.718;2023-10-31T08:51:56;1.88;;;1.10;;
69323;SDS011;56470;47.350;8.718;2023-10-31T08:54:22;3.03;;;1.63;;
69323;SDS011;56470;47.350;8.718;2023-10-31T08:56:47;3.27;;;0.97;;
69323;SDS011;56470;47.350;8.718;2023-10-31T08:59:15;2.95;;;0.77;;
69323;SDS011;56470;47.350;8.718;2023-10-31T09:01:40;3.10;;;1.07;;
69323;SDS011;56470;47.350;8.718;2023-10-31T09:04:06;2.77;;;1.00;;
69323;SDS011;56470;47.350;8.718;2023-10-31T09:06:31;2.27;;;1.10;;
69323;SDS011;56470;47.350;8.718;2023-10-31T09:08:57;4.47;;;1.27;;
69323;SDS011;56470;47.350;8.718;2023-10-31T09:11:22;3.37;;;1.20;;
69323;SDS011;56470;47.350;8.718;2023-10-31T09:13:47;2.00;;;0.93;;
69323;SDS011;56470;47.350;8.718;2023-10-31T09:16:13;4.63;;;1.37;;
69323;SDS011;56470;47.350;8.718;2023-10-31T09:18:38;4.60;;;0.90;;
69323;SDS011;56470;47.350;8.718;2023-10-31T09:21:04;2.93;;;1.10;;
69323;SDS011;56470;47.350;8.718;2023-10-31T09:23:29;3.40;;;1.17;;
69323;SDS011;56470;47.350;8.718;2023-10-31T09:25:55;3.50;;;1.00;;
69323;SDS011;56470;47.350;8.718;2023-10-31T09:28:20;2.57;;;0.77;;
69323;SDS011;56470;47.350;8.718;2023-10-31T09:30:45;3.90;;;1.10;;
69323;SDS011;56470;47.350;8.718;2023-10-31T09:33:11;3.93;;;1.30;;
69323;SDS011;56470;47.350;8.718;2023-10-31T09:35:36;3.70;;;1.00;;
69323;SDS011;56470;47.350;8.718;2023-10-31T09:38:02;1.73;;;0.90;;
69323;SDS011;56470;47.350;8.718;2023-10-31T09:40:31;2.20;;;0.80;;
69323;SDS011;56470;47.350;8.718;2023-10-31T09:42:56;2.13;;;1.10;;
69323;SDS011;56470;47.350;8.718;2023-10-31T09:45:22;2.17;;;1.10;;
69323;SDS011;56470;47.350;8.718;2023-10-31T09:47:47;2.90;;;1.30;;
69323;SDS011;56470;47.350;8.718;2023-10-31T09:50:12;3.73;;;1.10;;
69323;SDS011;56470;47.350;8.718;2023-10-31T09:52:38;5.50;;;1.20;;
69323;SDS011;56470;47.350;8.718;2023-10-31T09:55:05;3.28;;;1.10;;
69323;SDS011;56470;47.350;8.718;2023-10-31T09:57:31;2.13;;;1.02;;
69323;SDS011;56470;47.350;8.718;2023-10-31T09:59:57;2.87;;;0.87;;
69323;SDS011;56470;47.350;8.718;2023-10-31T10:02:22;2.53;;;1.03;;
69323;SDS011;56470;47.350;8.718;2023-10-31T10:04:48;5.22;;;1.20;;
69323;SDS011;56470;47.350;8.718;2023-10-31T10:07:17;2.87;;;0.80;;
69323;SDS011;56470;47.350;8.718;2023-10-31T10:09:44;1.23;;;0.75;;
69323;SDS011;56470;47.350;8.718;2023-10-31T10:12:11;2.53;;;1.25;;
69323;SDS011;56470;47.350;8.718;2023-10-31T10:14:38;2.60;;;0.73;;
69323;SDS011;56470;47.350;8.718;2023-10-31T10:17:13;2.03;;;0.80;;
69323;SDS011;56470;47.350;8.718;2023-10-31T10:19:40;2.13;;;0.87;;
69323;SDS011;56470;47.350;8.718;2023-10-31T10:22:05;2.22;;;0.80;;
69323;SDS011;56470;47.350;8.718;2023-10-31T10:24:30;3.03;;;1.20;;
69323;SDS011;56470;47.350;8.718;2023-10-31T10:26:56;2.70;;;1.00;;
69323;SDS011;56470;47.350;8.718;2023-10-31T10:29:21;3.07;;;1.03;;
69323;SDS011;56470;47.350;8.718;2023-10-31T10:31:46;2.73;;;1.30;;
69323;SDS011;56470;47.350;8.718;2023-10-31T10:34:13;3.97;;;1.37;;
69323;SDS011;56470;47.350;8.718;2023-10-31T10:36:41;5.90;;;1.63;;
69323;SDS011;56470;47.350;8.718;2023-10-31T10:39:14;4.28;;;1.50;;
69323;SDS011;56470;47.350;8.718;2023-10-31T10:41:46;2.97;;;1.02;;
69323;SDS011;56470;47.350;8.718;2023-10-31T10:44:16;3.38;;;1.45;;
69323;SDS011;56470;47.350;8.718;2023-10-31T10:46:42;5.20;;;1.30;;
69323;SDS011;56470;47.350;8.718;2023-10-31T10:49:15;2.42;;;0.98;;
69323;SDS011;56470;47.350;8.718;2023-10-31T10:52:07;1.73;;;0.88;;
69323;SDS011;56470;47.350;8.718;2023-10-31T10:54:37;2.33;;;1.00;;
69323;SDS011;56470;47.350;8.718;2023-10-31T10:57:31;3.25;;;1.10;;
69323;SDS011;56470;47.350;8.718;2023-10-31T11:00:03;4.60;;;1.73;;
69323;SDS011;56470;47.350;8.718;2023-10-31T11:02:31;3.70;;;0.88;;
69323;SDS011;56470;47.350;8.718;2023-10-31T11:05:00;3.22;;;1.17;;
69323;SDS011;56470;47.350;8.718;2023-10-31T11:07:25;3.17;;;0.85;;
69323;SDS011;56470;47.350;8.718;2023-10-31T11:09:53;3.17;;;1.00;;
69323;SDS011;56470;47.350;8.718;2023-10-31T11:12:19;4.73;;;1.40;;
69323;SDS011;56470;47.350;8.718;2023-10-31T11:14:47;2.90;;;1.17;;
69323;SDS011;56470;47.350;8.718;2023-10-31T11:17:24;1.98;;;0.77;;
69323;SDS011;56470;47.350;8.718;2023-10-31T11:19:54;2.47;;;1.00;;
69323;SDS011;56470;47.350;8.718;2023-10-31T11:22:20;3.28;;;1.33;;
69323;SDS011;56470;47.350;8.718;2023-10-31T11:24:47;3.63;;;1.07;;
69323;SDS011;56470;47.350;8.718;2023-10-31T11:27:13;4.20;;;1.40;;
69323;SDS011;56470;47.350;8.718;2023-10-31T11:29:39;5.80;;;1.90;;
69323;SDS011;56470;47.350;8.718;2023-10-31T11:32:07;4.77;;;1.30;;
69323;SDS011;56470;47.350;8.718;2023-10-31T11:34:34;2.45;;;1.20;;
69323;SDS011;56470;47.350;8.718;2023-10-31T11:42:38;4.75;;;1.55;;
69323;SDS011;56470;47.350;8.718;2023-10-31T11:45:03;2.63;;;0.85;;
69323;SDS011;56470;47.350;8.718;2023-10-31T11:47:48;2.43;;;1.10;;
69323;SDS011;56470;47.350;8.718;2023-10-31T11:50:14;2.58;;;0.82;;
69323;SDS011;56470;47.350;8.718;2023-10-31T11:52:40;2.75;;;0.90;;
69323;SDS011;56470;47.350;8.718;2023-10-31T11:55:09;1.97;;;1.20;;
69323;SDS011;56470;47.350;8.718;2023-10-31T11:57:35;3.78;;;1.40;;
69323;SDS011;56470;47.350;8.718;2023-10-31T12:00:01;2.57;;;1.57;;
69323;SDS011;56470;47.350;8.718;2023-10-31T12:02:28;2.53;;;0.93;;
69323;SDS011;56470;47.350;8.718;2023-10-31T12:05:07;6.50;;;1.70;;
69323;SDS011;56470;47.350;8.718;2023-10-31T12:07:42;2.60;;;0.70;;
69323;SDS011;56470;47.350;8.718;2023-10-31T12:10:08;3.15;;;0.93;;
69323;SDS011;56470;47.350;8.718;2023-10-31T12:12:35;2.08;;;1.08;;
69323;SDS011;56470;47.350;8.718;2023-10-31T12:15:09;1.60;;;0.70;;
69323;SDS011;56470;47.350;8.718;2023-10-31T12:17:35;1.83;;;0.90;;
69323;SDS011;56470;47.350;8.718;2023-10-31T12:20:04;3.20;;;1.05;;
69323;SDS011;56470;47.350;8.718;2023-10-31T12:22:32;1.90;;;0.88;;
69323;SDS011;56470;47.350;8.718;2023-10-31T12:25:04;2.33;;;0.85;;
69323;SDS011;56470;47.350;8.718;2023-10-31T12:27:43;2.77;;;0.97;;
69323;SDS011;56470;47.350;8.718;2023-10-31T12:30:16;2.67;;;1.13;;
69323;SDS011;56470;47.350;8.718;2023-10-31T12:32:43;1.65;;;1.00;;
69323;SDS011;56470;47.350;8.718;2023-10-31T12:35:13;2.75;;;1.23;;
69323;SDS011;56470;47.350;8.718;2023-10-31T12:37:44;1.98;;;0.85;;
69323;SDS011;56470;47.350;8.718;2023-10-31T12:40:17;2.23;;;1.00;;
69323;SDS011;56470;47.350;8.718;2023-10-31T12:42:44;4.18;;;1.35;;
69323;SDS011;56470;47.350;8.718;2023-10-31T12:45:14;4.60;;;2.15;;
69323;SDS011;56470;47.350;8.718;2023-10-31T12:47:40;4.95;;;1.35;;
69323;SDS011;56470;47.350;8.718;2023-10-31T12:52:50;3.58;;;1.20;;
69323;SDS011;56470;47.350;8.718;2023-10-31T12:55:22;3.10;;;1.10;;
69323;SDS011;56470;47.350;8.718;2023-10-31T12:57:48;1.63;;;1.20;;
69323;SDS011;56470;47.350;8.718;2023-10-31T13:00:17;3.58;;;1.10;;
69323;SDS011;56470;47.350;8.718;2023-10-31T13:02:49;1.40;;;1.00;;
69323;SDS011;56470;47.350;8.718;2023-10-31T13:05:16;3.38;;;0.82;;
69323;SDS011;56470;47.350;8.718;2023-10-31T13:07:48;1.70;;;0.70;;
69323;SDS011;56470;47.350;8.718;2023-10-31T13:10:15;1.77;;;0.98;;
69323;SDS011;56470;47.350;8.718;2023-10-31T13:12:47;1.40;;;0.63;;
69323;SDS011;56470;47.350;8.718;2023-10-31T13:15:16;3.05;;;1.00;;
69323;SDS011;56470;47.350;8.718;2023-10-31T13:17:48;3.60;;;1.20;;
69323;SDS011;56470;47.350;8.718;2023-10-31T13:20:15;1.85;;;1.20;;
69323;SDS011;56470;47.350;8.718;2023-10-31T13:22:42;2.90;;;1.02;;
69323;SDS011;56470;47.350;8.718;2023-10-31T13:25:08;3.73;;;1.40;;
69323;SDS011;56470;47.350;8.718;2023-10-31T13:27:38;4.28;;;1.27;;
69323;SDS011;56470;47.350;8.718;2023-10-31T13:30:06;2.95;;;1.23;;
69323;SDS011;56470;47.350;8.718;2023-10-31T13:32:32;2.13;;;1.00;;
69323;SDS011;56470;47.350;8.718;2023-10-31T13:35:01;2.00;;;0.60;;
69323;SDS011;56470;47.350;8.718;2023-10-31T13:37:27;2.38;;;0.95;;
69323;SDS011;56470;47.350;8.718;2023-10-31T13:39:52;1.67;;;0.97;;
69323;SDS011;56470;47.350;8.718;2023-10-31T13:42:17;2.45;;;0.80;;
69323;SDS011;56470;47.350;8.718;2023-10-31T13:44:48;1.83;;;0.77;;
69323;SDS011;56470;47.350;8.718;2023-10-31T13:47:14;1.70;;;0.87;;
69323;SDS011;56470;47.350;8.718;2023-10-31T13:49:39;2.60;;;0.80;;
69323;SDS011;56470;47.350;8.718;2023-10-31T13:52:10;2.05;;;0.95;;
69323;SDS011;56470;47.350;8.718;2023-10-31T13:54:35;2.75;;;1.17;;
69323;SDS011;56470;47.350;8.718;2023-10-31T13:57:01;1.77;;;1.00;;
69323;SDS011;56470;47.350;8.718;2023-10-31T13:59:26;1.80;;;0.90;;
69323;SDS011;56470;47.350;8.718;2023-10-31T14:01:52;2.50;;;1.10;;
69323;SDS011;56470;47.350;8.718;2023-10-31T14:04:18;1.42;;;1.13;;
69323;SDS011;56470;47.350;8.718;2023-10-31T14:06:44;2.17;;;1.00;;
69323;SDS011;56470;47.350;8.718;2023-10-31T14:09:10;1.15;;;1.02;;
69323;SDS011;56470;47.350;8.718;2023-10-31T14:11:37;1.80;;;1.10;;
69323;SDS011;56470;47.350;8.718;2023-10-31T14:14:03;1.42;;;1.10;;
69323;SDS011;56470;47.350;8.718;2023-10-31T14:16:32;1.42;;;0.88;;
69323;SDS011;56470;47.350;8.718;2023-10-31T14:18:58;4.23;;;0.93;;
69323;SDS011;56470;47.350;8.718;2023-10-31T14:21:23;1.70;;;0.73;;
69323;SDS011;56470;47.350;8.718;2023-10-31T14:23:50;1.23;;;0.90;;
69323;SDS011;56470;47.350;8.718;2023-10-31T14:26:21;1.30;;;0.95;;
69323;SDS011;56470;47.350;8.718;2023-10-31T14:28:47;1.67;;;0.80;;
69323;SDS011;56470;47.350;8.718;2023-10-31T14:31:14;0.80;;;0.60;;
69323;SDS011;56470;47.350;8.718;2023-10-31T14:33:39;0.90;;;0.60;;
69323;SDS011;56470;47.350;8.718;2023-10-31T14:36:05;1.00;;;0.70;;
69323;SDS011;56470;47.350;8.718;2023-10-31T14:38:31;1.67;;;0.70;;
69323;SDS011;56470;47.350;8.718;2023-10-31T14:40:56;0.93;;;0.50;;
69323;SDS011;56470;47.350;8.718;2023-10-31T14:43:21;0.90;;;0.60;;
69323;SDS011;56470;47.350;8.718;2023-10-31T14:45:47;0.60;;;0.50;;
69323;SDS011;56470;47.350;8.718;2023-10-31T14:48:12;1.10;;;0.70;;
69323;SDS011;56470;47.350;8.718;2023-10-31T14:50:38;0.80;;;0.60;;
69323;SDS011;56470;47.350;8.718;2023-10-31T14:53:04;0.95;;;0.68;;
69323;SDS011;56470;47.350;8.718;2023-10-31T14:55:30;1.03;;;0.70;;
69323;SDS011;56470;47.350;8.718;2023-10-31T14:57:55;1.73;;;0.83;;
69323;SDS011;56470;47.350;8.718;2023-10-31T15:00:21;1.00;;;0.80;;
69323;SDS011;56470;47.350;8.718;2023-10-31T15:02:46;1.30;;;0.90;;
69323;SDS011;56470;47.350;8.718;2023-10-31T15:05:15;0.90;;;0.70;;
69323;SDS011;56470;47.350;8.718;2023-10-31T15:07:40;1.07;;;0.60;;
69323;SDS011;56470;47.350;8.718;2023-10-31T15:10:06;0.95;;;0.50;;
69323;SDS011;56470;47.350;8.718;2023-10-31T15:12:32;1.30;;;0.85;;
69323;SDS011;56470;47.350;8.718;2023-10-31T15:14:57;1.70;;;1.00;;
69323;SDS011;56470;47.350;8.718;2023-10-31T15:17:23;0.70;;;0.47;;
69323;SDS011;56470;47.350;8.718;2023-10-31T15:19:48;1.10;;;0.67;;
69323;SDS011;56470;47.350;8.718;2023-10-31T15:22:13;1.30;;;0.90;;
69323;SDS011;56470;47.350;8.718;2023-10-31T15:24:39;1.63;;;0.97;;
69323;SDS011;56470;47.350;8.718;2023-10-31T15:27:04;1.70;;;0.67;;
69323;SDS011;56470;47.350;8.718;2023-10-31T15:29:30;1.30;;;0.80;;
69323;SDS011;56470;47.350;8.718;2023-10-31T15:31:55;2.80;;;1.20;;
69323;SDS011;56470;47.350;8.718;2023-10-31T15:34:20;1.00;;;0.80;;
69323;SDS011;56470;47.350;8.718;2023-10-31T15:36:46;1.10;;;0.88;;
69323;SDS011;56470;47.350;8.718;2023-10-31T15:39:11;1.27;;;0.80;;
69323;SDS011;56470;47.350;8.718;2023-10-31T15:41:40;2.50;;;1.30;;
69323;SDS011;56470;47.350;8.718;2023-10-31T15:44:06;1.33;;;1.20;;
69323;SDS011;56470;47.350;8.718;2023-10-31T15:46:31;1.25;;;0.75;;
69323;SDS011;56470;47.350;8.718;2023-10-31T15:48:59;1.27;;;0.87;;
69323;SDS011;56470;47.350;8.718;2023-10-31T15:51:25;1.33;;;0.80;;
69323;SDS011;56470;47.350;8.718;2023-10-31T15:53:50;2.70;;;0.90;;
69323;SDS011;56470;47.350;8.718;2023-10-31T15:56:15;2.00;;;1.17;;
69323;SDS011;56470;47.350;8.718;2023-10-31T15:58:41;2.00;;;1.00;;
69323;SDS011;56470;47.350;8.718;2023-10-31T16:01:06;1.53;;;1.07;;
69323;SDS011;56470;47.350;8.718;2023-10-31T16:03:32;1.67;;;0.85;;
69323;SDS011;56470;47.350;8.718;2023-10-31T16:05:57;1.97;;;1.00;;
69323;SDS011;56470;47.350;8.718;2023-10-31T16:08:22;2.10;;;1.00;;
69323;SDS011;56470;47.350;8.718;2023-10-31T16:10:48;1.60;;;1.13;;
69323;SDS011;56470;47.350;8.718;2023-10-31T16:13:16;2.50;;;1.05;;
69323;SDS011;56470;47.350;8.718;2023-10-31T16:15:41;1.57;;;1.10;;
69323;SDS011;56470;47.350;8.718;2023-10-31T16:18:06;1.10;;;0.93;;
69323;SDS011;56470;47.350;8.718;2023-10-31T16:20:32;1.40;;;0.98;;
69323;SDS011;56470;47.350;8.718;2023-10-31T16:22:59;1.15;;;0.70;;
69323;SDS011;56470;47.350;8.718;2023-10-31T16:25:25;1.47;;;0.80;;
69323;SDS011;56470;47.350;8.718;2023-10-31T16:27:50;1.37;;;0.87;;
69323;SDS011;56470;47.350;8.718;2023-10-31T16:30:15;1.30;;;0.98;;
69323;SDS011;56470;47.350;8.718;2023-10-31T16:32:41;2.63;;;1.23;;
69323;SDS011;56470;47.350;8.718;2023-10-31T16:35:06;1.40;;;0.80;;
69323;SDS011;56470;47.350;8.718;2023-10-31T16:37:32;1.20;;;0.93;;
69323;SDS011;56470;47.350;8.718;2023-10-31T16:39:57;2.07;;;1.10;;
69323;SDS011;56470;47.350;8.718;2023-10-31T16:45:58;2.17;;;1.00;;
69323;SDS011;56470;47.350;8.718;2023-10-31T17:00:19;3.00;;;1.50;;
69323;SDS011;56470;47.350;8.718;2023-10-31T17:02:45;1.90;;;1.30;;
69323;SDS011;56470;47.350;8.718;2023-10-31T17:05:10;2.17;;;1.37;;
69323;SDS011;56470;47.350;8.718;2023-10-31T17:07:35;2.97;;;1.30;;
69323;SDS011;56470;47.350;8.718;2023-10-31T17:10:01;3.60;;;1.30;;
69323;SDS011;56470;47.350;8.718;2023-10-31T17:12:26;2.50;;;1.17;;
69323;SDS011;56470;47.350;8.718;2023-10-31T17:14:52;1.70;;;0.80;;
69323;SDS011;56470;47.350;8.718;2023-10-31T17:17:18;2.00;;;0.93;;
69323;SDS011;56470;47.350;8.718;2023-10-31T17:19:43;4.00;;;1.70;;
69323;SDS011;56470;47.350;8.718;2023-10-31T17:22:09;1.97;;;1.00;;
69323;SDS011;56470;47.350;8.718;2023-10-31T17:24:34;2.10;;;1.47;;
69323;SDS011;56470;47.350;8.718;2023-10-31T17:26:59;3.30;;;1.60;;
69323;SDS011;56470;47.350;8.718;2023-10-31T17:29:25;2.60;;;1.00;;
69323;SDS011;56470;47.350;8.718;2023-10-31T17:31:50;3.17;;;1.53;;
69323;SDS011;56470;47.350;8.718;2023-10-31T17:34:16;3.80;;;1.42;;
69323;SDS011;56470;47.350;8.718;2023-10-31T17:36:41;3.80;;;1.47;;
69323;SDS011;56470;47.350;8.718;2023-10-31T17:39:06;1.90;;;1.20;;
69323;SDS011;56470;47.350;8.718;2023-10-31T17:41:33;3.58;;;1.33;;
69323;SDS011;56470;47.350;8.718;2023-10-31T17:43:59;2.07;;;1.00;;
69323;SDS011;56470;47.350;8.718;2023-10-31T17:46:24;2.87;;;0.90;;
69323;SDS011;56470;47.350;8.718;2023-10-31T17:48:49;1.80;;;0.82;;
69323;SDS011;56470;47.350;8.718;2023-10-31T17:51:15;2.23;;;1.10;;
69323;SDS011;56470;47.350;8.718;2023-10-31T17:53:40;2.83;;;1.30;;
69323;SDS011;56470;47.350;8.718;2023-10-31T17:56:06;1.97;;;0.77;;
69323;SDS011;56470;47.350;8.718;2023-10-31T17:58:32;2.58;;;1.25;;
69323;SDS011;56470;47.350;8.718;2023-10-31T18:00:57;5.70;;;2.27;;
69323;SDS011;56470;47.350;8.718;2023-10-31T18:03:23;5.10;;;1.93;;
69323;SDS011;56470;47.350;8.718;2023-10-31T18:05:48;3.30;;;1.00;;
69323;SDS011;56470;47.350;8.718;2023-10-31T18:08:14;2.23;;;1.20;;
69323;SDS011;56470;47.350;8.718;2023-10-31T18:10:39;220.25;;;62.50;;
69323;SDS011;56470;47.350;8.718;2023-10-31T18:13:04;415.53;;;125.73;;
69323;SDS011;56470;47.350;8.718;2023-10-31T18:15:30;366.63;;;102.13;;
69323;SDS011;56470;47.350;8.718;2023-10-31T19:47:52;3.30;;;1.30;;
69323;SDS011;56470;47.350;8.718;2023-10-31T19:50:18;2.27;;;1.07;;
69323;SDS011;56470;47.350;8.718;2023-10-31T19:52:45;2.22;;;0.90;;
69323;SDS011;56470;47.350;8.718;2023-10-31T19:55:13;1.77;;;0.93;;
69323;SDS011;56470;47.350;8.718;2023-10-31T19:57:45;3.00;;;1.03;;
69323;SDS011;56470;47.350;8.718;2023-10-31T20:18:23;1.92;;;0.90;;
69323;SDS011;56470;47.350;8.718;2023-10-31T21:43:15;2.92;;;1.65;;
69323;SDS011;56470;47.350;8.718;2023-10-31T21:45:46;4.10;;;1.60;;
69323;SDS011;56470;47.350;8.718;2023-10-31T21:48:22;4.25;;;2.15;;
69323;SDS011;56470;47.350;8.718;2023-10-31T21:54:41;3.07;;;1.83;;
69323;SDS011;56470;47.350;8.718;2023-10-31T21:57:42;4.72;;;1.60;;
69323;SDS011;56470;47.350;8.718;2023-10-31T22:06:23;3.90;;;2.40;;
69323;SDS011;56470;47.350;8.718;2023-10-31T22:13:00;2.70;;;1.45;;
69323;SDS011;56470;47.350;8.718;2023-10-31T22:16:18;4.85;;;2.05;;
69323;SDS011;56470;47.350;8.718;2023-10-31T22:18:59;4.63;;;2.55;;
69323;SDS011;56470;47.350;8.718;2023-10-31T22:22:06;3.85;;;2.60;;
69323;SDS011;56470;47.350;8.718;2023-10-31T22:38:45;5.28;;;1.98;;
69323;SDS011;56470;47.350;8.718;2023-10-31T22:45:02;4.25;;;2.10;;
69323;SDS011;56470;47.350;8.718;2023-10-31T22:47:47;6.10;;;3.22;;
69323;SDS011;56470;47.350;8.718;2023-10-31T22:50:29;3.80;;;2.00;;
69323;SDS011;56470;47.350;8.718;2023-10-31T22:53:13;3.95;;;2.60;;
69323;SDS011;56470;47.350;8.718;2023-10-31T23:02:44;4.72;;;2.03;;
69323;SDS011;56470;47.350;8.718;2023-10-31T23:09:11;5.10;;;2.22;;
69323;SDS011;56470;47.350;8.718;2023-10-31T23:11:48;4.60;;;1.87;;
69323;SDS011;56470;47.350;8.718;2023-10-31T23:14:36;4.40;;;2.13;;
69323;SDS011;56470;47.350;8.718;2023-10-31T23:20:53;4.82;;;2.38;;
69323;SDS011;56470;47.350;8.718;2023-10-31T23:23:48;4.78;;;2.47;;
69323;SDS011;56470;47.350;8.718;2023-10-31T23:46:31;4.80;;;2.40;;
69323;SDS011;56470;47.350;8.718;2023-10-31T23:52:18;4.78;;;2.15;;
69323;SDS011;56470;47.350;8.718;2023-10-31T23:58:14;6.07;;;2.20;;
